sensor_id;sensor_type;location;lat;lon;timestamp;pressure;altitude;pressure_sealevel;temperature;humidity
78313;BME280;67568;47.438;21.408;2023-12-20T00:01:55;100802.31;;;-0.06;100.00
78313;BME280;67568;47.438;21.408;2023-12-20T00:04:22;100792.28;;;-0.12;100.00
78313;BME280;67568;47.438;21.408;2023-12-20T00:06:49;100798.91;;;-0.01;100.00
78313;BME280;67568;47.438;21.408;2023-12-20T00:09:16;100791.19;;;-0.04;100.00
78313;BME280;67568;47.438;21.408;2023-12-20T00:11:43;100783.69;;;-0.09;100.00
78313;BME280;67568;47.438;21.408;2023-12-20T00:14:09;100776.91;;;0.01;100.00
78313;BME280;67568;47.438;21.408;2023-12-20T00:16:36;100773.50;;;-0.20;100.00
78313;BME280;67568;47.438;21.408;2023-12-20T00:19:03;100777.00;;;-0.13;100.00
78313;BME280;67568;47.438;21.408;2023-12-20T00:21:30;100784.22;;;-0.25;100.00
78313;BME280;67568;47.438;21.408;2023-12-20T00:23:56;100773.78;;;-0.28;100.00
78313;BME280;67568;47.438;21.408;2023-12-20T00:26:23;100768.94;;;-0.26;100.00
78313;BME280;67568;47.438;21.408;2023-12-20T00:28:50;100760.63;;;-0.31;100.00
78313;BME280;67568;47.438;21.408;2023-12-20T00:31:17;100762.91;;;-0.28;100.00
78313;BME280;67568;47.438;21.408;2023-12-20T00:33:44;100749.78;;;-0.13;100.00
78313;BME280;67568;47.438;21.408;2023-12-20T00:36:11;100748.56;;;-0.17;100.00
78313;BME280;67568;47.438;21.408;2023-12-20T00:38:37;100748.41;;;-0.54;100.00
78313;BME280;67568;47.438;21.408;2023-12-20T00:41:04;100743.69;;;-0.40;100.00
78313;BME280;67568;47.438;21.408;2023-12-20T00:43:31;100744.56;;;-0.46;100.00
78313;BME280;67568;47.438;21.408;2023-12-20T00:45:58;100733.66;;;-0.39;100.00
78313;BME280;67568;47.438;21.408;2023-12-20T00:48:24;100720.44;;;-0.36;100.00
78313;BME280;67568;47.438;21.408;2023-12-20T00:50:51;100711.25;;;-0.41;100.00
78313;BME280;67568;47.438;21.408;2023-12-20T00:53:18;100713.53;;;-0.38;100.00
78313;BME280;67568;47.438;21.408;2023-12-20T00:55:45;100706.38;;;-0.33;100.00
78313;BME280;67568;47.438;21.408;2023-12-20T00:58:12;100704.44;;;-0.26;100.00
78313;BME280;67568;47.438;21.408;2023-12-20T01:00:38;100710.91;;;-0.83;100.00
78313;BME280;67568;47.438;21.408;2023-12-20T01:03:09;100715.66;;;-0.72;100.00
78313;BME280;67568;47.438;21.408;2023-12-20T01:05:35;100704.88;;;-0.54;100.00
78313;BME280;67568;47.438;21.408;2023-12-20T01:08:02;100694.44;;;-0.63;100.00
78313;BME280;67568;47.438;21.408;2023-12-20T01:10:29;100693.38;;;-0.87;100.00
78313;BME280;67568;47.438;21.408;2023-12-20T01:12:56;100696.13;;;-0.62;100.00
78313;BME280;67568;47.438;21.408;2023-12-20T01:15:23;100690.38;;;-0.79;100.00
78313;BME280;67568;47.438;21.408;2023-12-20T01:17:51;100687.09;;;-0.56;100.00
78313;BME280;67568;47.438;21.408;2023-12-20T01:20:18;100672.47;;;-0.62;100.00
78313;BME280;67568;47.438;21.408;2023-12-20T01:22:45;100670.41;;;-0.66;100.00
78313;BME280;67568;47.438;21.408;2023-12-20T01:25:12;100664.91;;;-0.60;100.00
78313;BME280;67568;47.438;21.408;2023-12-20T01:27:38;100655.47;;;-0.57;100.00
78313;BME280;67568;47.438;21.408;2023-12-20T01:30:06;100653.75;;;-0.52;100.00
78313;BME280;67568;47.438;21.408;2023-12-20T01:32:33;100642.94;;;-0.58;100.00
78313;BME280;67568;47.438;21.408;2023-12-20T01:34:59;100645.28;;;-0.62;100.00
78313;BME280;67568;47.438;21.408;2023-12-20T01:37:29;100633.31;;;-0.61;100.00
78313;BME280;67568;47.438;21.408;2023-12-20T01:39:56;100638.50;;;-0.53;100.00
78313;BME280;67568;47.438;21.408;2023-12-20T01:42:25;100638.00;;;-0.68;100.00
78313;BME280;67568;47.438;21.408;2023-12-20T01:44:52;100632.97;;;-0.46;100.00
78313;BME280;67568;47.438;21.408;2023-12-20T01:47:19;100633.44;;;-0.49;100.00
78313;BME280;67568;47.438;21.408;2023-12-20T01:49:46;100624.69;;;-0.83;100.00
78313;BME280;67568;47.438;21.408;2023-12-20T01:52:13;100627.16;;;-0.50;100.00
78313;BME280;67568;47.438;21.408;2023-12-20T01:54:40;100619.81;;;-0.74;100.00
78313;BME280;67568;47.438;21.408;2023-12-20T01:57:09;100618.94;;;-0.68;100.00
78313;BME280;67568;47.438;21.408;2023-12-20T01:59:37;100630.09;;;-0.76;100.00
78313;BME280;67568;47.438;21.408;2023-12-20T02:02:07;100623.59;;;-0.75;100.00
78313;BME280;67568;47.438;21.408;2023-12-20T02:04:34;100615.38;;;-0.94;100.00
78313;BME280;67568;47.438;21.408;2023-12-20T02:07:02;100608.28;;;-0.70;100.00
78313;BME280;67568;47.438;21.408;2023-12-20T02:09:30;100607.72;;;-0.53;100.00
78313;BME280;67568;47.438;21.408;2023-12-20T02:11:57;100591.72;;;-0.43;100.00
78313;BME280;67568;47.438;21.408;2023-12-20T02:14:23;100582.34;;;-0.72;100.00
78313;BME280;67568;47.438;21.408;2023-12-20T02:16:50;100575.69;;;-0.76;100.00
78313;BME280;67568;47.438;21.408;2023-12-20T02:19:17;100572.28;;;-0.47;100.00
78313;BME280;67568;47.438;21.408;2023-12-20T02:21:44;100577.19;;;-0.80;100.00
78313;BME280;67568;47.438;21.408;2023-12-20T02:24:11;100573.97;;;-0.71;100.00
78313;BME280;67568;47.438;21.408;2023-12-20T02:26:38;100570.06;;;-0.56;100.00
78313;BME280;67568;47.438;21.408;2023-12-20T02:29:05;100563.34;;;-0.54;100.00
78313;BME280;67568;47.438;21.408;2023-12-20T02:31:31;100559.41;;;-0.58;100.00
78313;BME280;67568;47.438;21.408;2023-12-20T02:33:58;100571.72;;;-0.55;100.00
78313;BME280;67568;47.438;21.408;2023-12-20T02:36:25;100564.28;;;-0.41;100.00
78313;BME280;67568;47.438;21.408;2023-12-20T02:38:54;100557.78;;;-0.40;100.00
78313;BME280;67568;47.438;21.408;2023-12-20T02:41:20;100556.97;;;-0.66;100.00
78313;BME280;67568;47.438;21.408;2023-12-20T02:43:47;100552.50;;;-0.60;100.00
78313;BME280;67568;47.438;21.408;2023-12-20T02:46:15;100554.34;;;-0.54;100.00
78313;BME280;67568;47.438;21.408;2023-12-20T02:48:42;100555.50;;;-0.43;100.00
78313;BME280;67568;47.438;21.408;2023-12-20T02:51:09;100554.59;;;-0.37;100.00
78313;BME280;67568;47.438;21.408;2023-12-20T02:53:36;100539.66;;;-0.28;100.00
78313;BME280;67568;47.438;21.408;2023-12-20T02:56:03;100547.94;;;-0.23;100.00
78313;BME280;67568;47.438;21.408;2023-12-20T02:58:30;100549.09;;;-0.31;100.00
78313;BME280;67568;47.438;21.408;2023-12-20T03:00:57;100543.41;;;-0.29;100.00
78313;BME280;67568;47.438;21.408;2023-12-20T03:03:24;100545.09;;;-0.28;100.00
78313;BME280;67568;47.438;21.408;2023-12-20T03:05:51;100544.66;;;-0.25;100.00
78313;BME280;67568;47.438;21.408;2023-12-20T03:08:18;100537.91;;;-0.66;100.00
78313;BME280;67568;47.438;21.408;2023-12-20T03:10:45;100535.06;;;-0.71;100.00
78313;BME280;67568;47.438;21.408;2023-12-20T03:13:12;100531.81;;;-0.86;100.00
78313;BME280;67568;47.438;21.408;2023-12-20T03:15:38;100534.28;;;-0.78;100.00
78313;BME280;67568;47.438;21.408;2023-12-20T03:18:05;100531.75;;;-0.80;100.00
78313;BME280;67568;47.438;21.408;2023-12-20T03:20:32;100535.66;;;-0.94;100.00
78313;BME280;67568;47.438;21.408;2023-12-20T03:22:59;100524.47;;;-0.79;100.00
78313;BME280;67568;47.438;21.408;2023-12-20T03:25:25;100519.66;;;-0.84;100.00
78313;BME280;67568;47.438;21.408;2023-12-20T03:27:53;100513.03;;;-0.88;100.00
78313;BME280;67568;47.438;21.408;2023-12-20T03:30:19;100508.13;;;-0.79;100.00
78313;BME280;67568;47.438;21.408;2023-12-20T03:32:46;100503.72;;;-0.80;100.00
78313;BME280;67568;47.438;21.408;2023-12-20T03:35:13;100503.53;;;-1.04;100.00
78313;BME280;67568;47.438;21.408;2023-12-20T03:37:40;100487.84;;;-0.83;100.00
78313;BME280;67568;47.438;21.408;2023-12-20T03:40:07;100488.72;;;-0.64;100.00
78313;BME280;67568;47.438;21.408;2023-12-20T03:42:41;100487.44;;;-0.62;100.00
78313;BME280;67568;47.438;21.408;2023-12-20T03:45:08;100474.97;;;-0.70;100.00
78313;BME280;67568;47.438;21.408;2023-12-20T03:47:38;100480.25;;;-0.75;100.00
78313;BME280;67568;47.438;21.408;2023-12-20T03:50:05;100464.75;;;-0.74;100.00
78313;BME280;67568;47.438;21.408;2023-12-20T03:52:32;100465.66;;;-0.80;100.00
78313;BME280;67568;47.438;21.408;2023-12-20T03:54:59;100461.50;;;-0.83;100.00
78313;BME280;67568;47.438;21.408;2023-12-20T03:57:26;100459.72;;;-0.71;100.00
78313;BME280;67568;47.438;21.408;2023-12-20T03:59:53;100455.09;;;-0.70;100.00
78313;BME280;67568;47.438;21.408;2023-12-20T04:02:20;100449.97;;;-1.03;100.00
78313;BME280;67568;47.438;21.408;2023-12-20T04:04:46;100457.28;;;-0.79;100.00
78313;BME280;67568;47.438;21.408;2023-12-20T04:07:13;100445.13;;;-0.76;100.00
78313;BME280;67568;47.438;21.408;2023-12-20T04:09:41;100438.94;;;-0.65;100.00
78313;BME280;67568;47.438;21.408;2023-12-20T04:12:07;100439.00;;;-0.53;100.00
78313;BME280;67568;47.438;21.408;2023-12-20T04:14:34;100433.91;;;-0.86;100.00
78313;BME280;67568;47.438;21.408;2023-12-20T04:17:01;100432.44;;;-0.82;100.00
78313;BME280;67568;47.438;21.408;2023-12-20T04:19:28;100432.25;;;-0.87;100.00
78313;BME280;67568;47.438;21.408;2023-12-20T04:21:55;100430.84;;;-1.15;100.00
78313;BME280;67568;47.438;21.408;2023-12-20T04:24:21;100439.44;;;-0.93;100.00
78313;BME280;67568;47.438;21.408;2023-12-20T04:26:48;100441.25;;;-0.87;100.00
78313;BME280;67568;47.438;21.408;2023-12-20T04:29:15;100428.03;;;-0.83;100.00
78313;BME280;67568;47.438;21.408;2023-12-20T04:31:42;100417.31;;;-0.97;100.00
78313;BME280;67568;47.438;21.408;2023-12-20T04:34:08;100415.03;;;-0.81;100.00
78313;BME280;67568;47.438;21.408;2023-12-20T04:36:35;100409.69;;;-0.88;100.00
78313;BME280;67568;47.438;21.408;2023-12-20T04:39:05;100405.66;;;-1.04;100.00
78313;BME280;67568;47.438;21.408;2023-12-20T04:41:32;100410.25;;;-0.86;100.00
78313;BME280;67568;47.438;21.408;2023-12-20T04:43:59;100410.00;;;-1.03;100.00
78313;BME280;67568;47.438;21.408;2023-12-20T04:46:26;100409.06;;;-0.90;100.00
78313;BME280;67568;47.438;21.408;2023-12-20T04:48:54;100412.78;;;-0.84;100.00
78313;BME280;67568;47.438;21.408;2023-12-20T04:51:21;100414.34;;;-0.95;100.00
78313;BME280;67568;47.438;21.408;2023-12-20T04:53:48;100413.38;;;-0.82;100.00
78313;BME280;67568;47.438;21.408;2023-12-20T04:56:15;100419.28;;;-0.67;100.00
78313;BME280;67568;47.438;21.408;2023-12-20T04:58:42;100415.88;;;-0.62;100.00
78313;BME280;67568;47.438;21.408;2023-12-20T05:01:09;100407.47;;;-0.61;100.00
78313;BME280;67568;47.438;21.408;2023-12-20T05:03:36;100410.13;;;-0.73;100.00
78313;BME280;67568;47.438;21.408;2023-12-20T05:06:03;100419.56;;;-0.75;100.00
78313;BME280;67568;47.438;21.408;2023-12-20T05:08:30;100412.25;;;-0.75;100.00
78313;BME280;67568;47.438;21.408;2023-12-20T05:10:57;100408.16;;;-0.84;100.00
78313;BME280;67568;47.438;21.408;2023-12-20T05:13:24;100415.34;;;-0.71;100.00
78313;BME280;67568;47.438;21.408;2023-12-20T05:16:04;100414.72;;;-0.55;100.00
78313;BME280;67568;47.438;21.408;2023-12-20T05:18:30;100413.47;;;-0.71;100.00
78313;BME280;67568;47.438;21.408;2023-12-20T05:20:57;100416.94;;;-0.63;100.00
78313;BME280;67568;47.438;21.408;2023-12-20T05:23:25;100413.28;;;-0.57;100.00
78313;BME280;67568;47.438;21.408;2023-12-20T05:25:52;100425.31;;;-0.47;100.00
78313;BME280;67568;47.438;21.408;2023-12-20T05:28:18;100414.75;;;-0.73;100.00
78313;BME280;67568;47.438;21.408;2023-12-20T05:30:45;100425.69;;;-0.61;100.00
78313;BME280;67568;47.438;21.408;2023-12-20T05:33:12;100411.84;;;-0.60;100.00
78313;BME280;67568;47.438;21.408;2023-12-20T05:35:39;100419.06;;;-0.65;100.00
78313;BME280;67568;47.438;21.408;2023-12-20T05:38:05;100425.53;;;-0.85;100.00
78313;BME280;67568;47.438;21.408;2023-12-20T05:40:32;100418.97;;;-0.77;100.00
78313;BME280;67568;47.438;21.408;2023-12-20T05:42:59;100413.38;;;-0.82;100.00
78313;BME280;67568;47.438;21.408;2023-12-20T05:45:26;100422.00;;;-0.67;100.00
78313;BME280;67568;47.438;21.408;2023-12-20T05:47:52;100421.78;;;-0.65;100.00
78313;BME280;67568;47.438;21.408;2023-12-20T05:50:19;100420.81;;;-0.71;100.00
78313;BME280;67568;47.438;21.408;2023-12-20T05:52:47;100419.44;;;-0.62;100.00
78313;BME280;67568;47.438;21.408;2023-12-20T05:55:14;100426.38;;;-0.48;100.00
78313;BME280;67568;47.438;21.408;2023-12-20T05:57:41;100421.41;;;-0.51;100.00
78313;BME280;67568;47.438;21.408;2023-12-20T06:00:08;100421.56;;;-0.46;100.00
78313;BME280;67568;47.438;21.408;2023-12-20T06:02:35;100426.91;;;-0.57;100.00
78313;BME280;67568;47.438;21.408;2023-12-20T06:05:04;100421.84;;;-0.54;100.00
78313;BME280;67568;47.438;21.408;2023-12-20T06:07:31;100420.47;;;-0.63;100.00
78313;BME280;67568;47.438;21.408;2023-12-20T06:09:57;100419.97;;;-0.53;100.00
78313;BME280;67568;47.438;21.408;2023-12-20T06:12:25;100408.19;;;-0.65;100.00
78313;BME280;67568;47.438;21.408;2023-12-20T06:14:52;100411.94;;;-0.85;100.00
78313;BME280;67568;47.438;21.408;2023-12-20T06:17:19;100413.59;;;-1.02;100.00
78313;BME280;67568;47.438;21.408;2023-12-20T06:19:45;100413.81;;;-1.04;100.00
78313;BME280;67568;47.438;21.408;2023-12-20T06:22:12;100413.69;;;-0.72;100.00
78313;BME280;67568;47.438;21.408;2023-12-20T06:24:39;100413.38;;;-0.82;100.00
78313;BME280;67568;47.438;21.408;2023-12-20T06:27:06;100409.81;;;-1.01;100.00
78313;BME280;67568;47.438;21.408;2023-12-20T06:29:33;100409.09;;;-1.15;100.00
78313;BME280;67568;47.438;21.408;2023-12-20T06:32:00;100408.97;;;-1.02;100.00
78313;BME280;67568;47.438;21.408;2023-12-20T06:34:29;100406.41;;;-0.97;100.00
78313;BME280;67568;47.438;21.408;2023-12-20T06:36:56;100411.41;;;-0.94;100.00
78313;BME280;67568;47.438;21.408;2023-12-20T06:39:26;100399.91;;;-0.77;100.00
78313;BME280;67568;47.438;21.408;2023-12-20T06:41:54;100394.88;;;-0.74;100.00
78313;BME280;67568;47.438;21.408;2023-12-20T06:44:21;100389.81;;;-0.70;100.00
78313;BME280;67568;47.438;21.408;2023-12-20T06:46:48;100383.69;;;-0.65;100.00
78313;BME280;67568;47.438;21.408;2023-12-20T06:49:15;100394.56;;;-0.84;100.00
78313;BME280;67568;47.438;21.408;2023-12-20T06:51:44;100391.38;;;-0.81;100.00
78313;BME280;67568;47.438;21.408;2023-12-20T06:54:12;100396.75;;;-0.74;100.00
78313;BME280;67568;47.438;21.408;2023-12-20T06:56:42;100379.81;;;-0.95;100.00
78313;BME280;67568;47.438;21.408;2023-12-20T06:59:09;100387.38;;;-0.78;100.00
78313;BME280;67568;47.438;21.408;2023-12-20T07:01:36;100378.31;;;-0.91;100.00
78313;BME280;67568;47.438;21.408;2023-12-20T07:04:06;100365.94;;;-1.05;100.00
78313;BME280;67568;47.438;21.408;2023-12-20T07:06:35;100360.25;;;-0.66;100.00
78313;BME280;67568;47.438;21.408;2023-12-20T07:09:02;100368.34;;;-0.78;100.00
78313;BME280;67568;47.438;21.408;2023-12-20T07:11:29;100367.50;;;-1.16;100.00
78313;BME280;67568;47.438;21.408;2023-12-20T07:13:56;100367.34;;;-0.84;100.00
78313;BME280;67568;47.438;21.408;2023-12-20T07:16:22;100366.50;;;-0.66;100.00
78313;BME280;67568;47.438;21.408;2023-12-20T07:18:50;100369.41;;;-0.79;100.00
78313;BME280;67568;47.438;21.408;2023-12-20T07:21:17;100363.34;;;-0.81;100.00
78313;BME280;67568;47.438;21.408;2023-12-20T07:23:44;100356.41;;;-0.96;100.00
78313;BME280;67568;47.438;21.408;2023-12-20T07:26:11;100358.84;;;-0.87;100.00
78313;BME280;67568;47.438;21.408;2023-12-20T07:28:38;100355.81;;;-0.79;100.00
78313;BME280;67568;47.438;21.408;2023-12-20T07:31:05;100354.13;;;-0.62;100.00
78313;BME280;67568;47.438;21.408;2023-12-20T07:33:32;100355.78;;;-0.61;100.00
78313;BME280;67568;47.438;21.408;2023-12-20T07:36:05;100343.25;;;-0.99;100.00
78313;BME280;67568;47.438;21.408;2023-12-20T07:38:32;100350.81;;;-0.82;100.00
78313;BME280;67568;47.438;21.408;2023-12-20T07:40:59;100350.06;;;-1.08;100.00
78313;BME280;67568;47.438;21.408;2023-12-20T07:43:27;100344.09;;;-1.17;100.00
78313;BME280;67568;47.438;21.408;2023-12-20T07:45:54;100340.72;;;-1.37;100.00
78313;BME280;67568;47.438;21.408;2023-12-20T07:48:21;100338.13;;;-0.88;100.00
78313;BME280;67568;47.438;21.408;2023-12-20T07:50:48;100335.81;;;-0.55;100.00
78313;BME280;67568;47.438;21.408;2023-12-20T07:53:15;100326.56;;;-0.35;100.00
78313;BME280;67568;47.438;21.408;2023-12-20T07:55:42;100333.63;;;-0.16;100.00
78313;BME280;67568;47.438;21.408;2023-12-20T07:58:08;100335.66;;;-0.41;100.00
78313;BME280;67568;47.438;21.408;2023-12-20T08:00:38;100328.88;;;-0.69;100.00
78313;BME280;67568;47.438;21.408;2023-12-20T08:03:05;100318.16;;;-0.34;100.00
78313;BME280;67568;47.438;21.408;2023-12-20T08:05:32;100321.50;;;-0.80;100.00
78313;BME280;67568;47.438;21.408;2023-12-20T08:07:59;100304.97;;;-0.49;100.00
78313;BME280;67568;47.438;21.408;2023-12-20T08:10:27;100308.56;;;-0.36;100.00
78313;BME280;67568;47.438;21.408;2023-12-20T08:12:54;100302.66;;;0.09;100.00
78313;BME280;67568;47.438;21.408;2023-12-20T08:15:21;100296.84;;;0.17;100.00
78313;BME280;67568;47.438;21.408;2023-12-20T08:17:49;100289.38;;;-0.41;100.00
78313;BME280;67568;47.438;21.408;2023-12-20T08:20:17;100285.91;;;-0.49;100.00
78313;BME280;67568;47.438;21.408;2023-12-20T08:22:55;100291.41;;;-0.67;100.00
78313;BME280;67568;47.438;21.408;2023-12-20T08:25:22;100304.94;;;-0.30;100.00
78313;BME280;67568;47.438;21.408;2023-12-20T08:27:49;100311.38;;;-0.01;100.00
78313;BME280;67568;47.438;21.408;2023-12-20T08:30:16;100298.88;;;0.21;100.00
78313;BME280;67568;47.438;21.408;2023-12-20T08:32:43;100290.81;;;0.74;100.00
78313;BME280;67568;47.438;21.408;2023-12-20T08:35:10;100276.44;;;1.59;95.86
78313;BME280;67568;47.438;21.408;2023-12-20T08:37:37;100274.09;;;1.34;95.35
78313;BME280;67568;47.438;21.408;2023-12-20T08:40:04;100274.16;;;2.69;87.46
78313;BME280;67568;47.438;21.408;2023-12-20T08:42:32;100264.59;;;2.16;87.34
78313;BME280;67568;47.438;21.408;2023-12-20T08:44:59;100267.78;;;2.63;88.08
78313;BME280;67568;47.438;21.408;2023-12-20T08:47:26;100267.03;;;3.56;84.16
78313;BME280;67568;47.438;21.408;2023-12-20T08:49:53;100257.44;;;4.18;79.67
78313;BME280;67568;47.438;21.408;2023-12-20T08:52:20;100275.75;;;3.80;78.87
78313;BME280;67568;47.438;21.408;2023-12-20T08:54:47;100274.66;;;5.71;74.25
78313;BME280;67568;47.438;21.408;2023-12-20T08:57:14;100292.63;;;5.94;76.62
78313;BME280;67568;47.438;21.408;2023-12-20T08:59:41;100298.97;;;6.51;73.82
78313;BME280;67568;47.438;21.408;2023-12-20T09:02:08;100301.19;;;6.23;73.77
78313;BME280;67568;47.438;21.408;2023-12-20T09:04:35;100306.13;;;6.16;76.11
78313;BME280;67568;47.438;21.408;2023-12-20T09:07:02;100304.63;;;7.16;73.71
78313;BME280;67568;47.438;21.408;2023-12-20T09:09:29;100312.41;;;6.88;72.70
78313;BME280;67568;47.438;21.408;2023-12-20T09:11:56;100316.88;;;6.18;75.13
78313;BME280;67568;47.438;21.408;2023-12-20T09:14:23;100310.53;;;6.07;76.26
78313;BME280;67568;47.438;21.408;2023-12-20T09:16:50;100312.09;;;5.88;77.56
78313;BME280;67568;47.438;21.408;2023-12-20T09:19:17;100316.72;;;4.99;79.68
78313;BME280;67568;47.438;21.408;2023-12-20T09:21:44;100310.09;;;4.20;81.84
78313;BME280;67568;47.438;21.408;2023-12-20T09:24:11;100296.13;;;3.62;84.47
78313;BME280;67568;47.438;21.408;2023-12-20T09:26:38;100308.75;;;3.41;88.20
78313;BME280;67568;47.438;21.408;2023-12-20T09:29:05;100302.31;;;3.08;88.85
78313;BME280;67568;47.438;21.408;2023-12-20T09:31:32;100298.53;;;2.92;89.17
78313;BME280;67568;47.438;21.408;2023-12-20T09:33:59;100287.75;;;2.64;91.07
78313;BME280;67568;47.438;21.408;2023-12-20T09:36:26;100286.59;;;2.60;90.53
78313;BME280;67568;47.438;21.408;2023-12-20T09:38:53;100284.06;;;2.19;91.87
78313;BME280;67568;47.438;21.408;2023-12-20T09:41:20;100277.25;;;2.22;91.65
78313;BME280;67568;47.438;21.408;2023-12-20T09:43:48;100277.69;;;2.31;92.21
78313;BME280;67568;47.438;21.408;2023-12-20T09:46:17;100265.75;;;2.20;92.04
78313;BME280;67568;47.438;21.408;2023-12-20T09:48:46;100266.00;;;2.18;92.11
78313;BME280;67568;47.438;21.408;2023-12-20T09:51:15;100265.19;;;2.18;92.10
78313;BME280;67568;47.438;21.408;2023-12-20T09:53:43;100266.59;;;2.20;92.10
78313;BME280;67568;47.438;21.408;2023-12-20T09:56:11;100261.09;;;1.87;93.68
78313;BME280;67568;47.438;21.408;2023-12-20T09:58:38;100255.41;;;2.05;92.74
78313;BME280;67568;47.438;21.408;2023-12-20T10:01:07;100250.84;;;1.94;92.92
78313;BME280;67568;47.438;21.408;2023-12-20T10:03:34;100253.72;;;1.87;94.89
78313;BME280;67568;47.438;21.408;2023-12-20T10:06:02;100241.25;;;1.91;94.44
78313;BME280;67568;47.438;21.408;2023-12-20T10:08:29;100238.16;;;2.21;93.28
78313;BME280;67568;47.438;21.408;2023-12-20T10:10:56;100235.09;;;2.35;92.78
78313;BME280;67568;47.438;21.408;2023-12-20T10:13:23;100233.91;;;2.47;92.44
78313;BME280;67568;47.438;21.408;2023-12-20T10:15:50;100232.03;;;2.48;91.77
78313;BME280;67568;47.438;21.408;2023-12-20T10:18:16;100229.91;;;2.55;92.14
78313;BME280;67568;47.438;21.408;2023-12-20T10:20:44;100228.03;;;2.39;92.81
78313;BME280;67568;47.438;21.408;2023-12-20T10:23:11;100228.97;;;2.28;94.04
78313;BME280;67568;47.438;21.408;2023-12-20T10:25:38;100212.53;;;2.44;92.69
78313;BME280;67568;47.438;21.408;2023-12-20T10:30:37;100204.84;;;2.41;92.66
78313;BME280;67568;47.438;21.408;2023-12-20T10:33:07;100203.28;;;2.29;94.31
78313;BME280;67568;47.438;21.408;2023-12-20T10:35:40;100205.72;;;2.47;93.34
78313;BME280;67568;47.438;21.408;2023-12-20T10:38:12;100190.06;;;2.03;95.82
78313;BME280;67568;47.438;21.408;2023-12-20T10:40:39;100181.44;;;2.29;94.53
78313;BME280;67568;47.438;21.408;2023-12-20T10:43:07;100174.44;;;2.38;93.91
78313;BME280;67568;47.438;21.408;2023-12-20T10:45:35;100180.69;;;2.55;93.34
78313;BME280;67568;47.438;21.408;2023-12-20T10:48:03;100179.09;;;2.81;92.71
78313;BME280;67568;47.438;21.408;2023-12-20T10:50:31;100165.38;;;2.76;92.34
78313;BME280;67568;47.438;21.408;2023-12-20T10:52:59;100176.22;;;2.93;91.37
78313;BME280;67568;47.438;21.408;2023-12-20T10:55:27;100173.00;;;2.96;91.57
78313;BME280;67568;47.438;21.408;2023-12-20T10:58:01;100177.97;;;2.77;91.98
78313;BME280;67568;47.438;21.408;2023-12-20T11:00:29;100184.41;;;2.88;92.32
78313;BME280;67568;47.438;21.408;2023-12-20T11:03:01;100183.19;;;2.57;92.33
78313;BME280;67568;47.438;21.408;2023-12-20T11:08:25;100173.75;;;2.47;93.27
78313;BME280;67568;47.438;21.408;2023-12-20T11:11:06;100165.13;;;2.78;92.24
78313;BME280;67568;47.438;21.408;2023-12-20T11:13:54;100157.94;;;2.99;92.42
78313;BME280;67568;47.438;21.408;2023-12-20T11:16:22;100137.31;;;2.64;93.65
78313;BME280;67568;47.438;21.408;2023-12-20T11:18:51;100133.81;;;3.18;92.41
78313;BME280;67568;47.438;21.408;2023-12-20T11:21:19;100127.78;;;3.48;90.28
78313;BME280;67568;47.438;21.408;2023-12-20T11:23:46;100129.78;;;3.57;88.02
78313;BME280;67568;47.438;21.408;2023-12-20T11:26:15;100124.66;;;3.66;88.40
78313;BME280;67568;47.438;21.408;2023-12-20T11:28:42;100118.56;;;3.59;88.69
78313;BME280;67568;47.438;21.408;2023-12-20T11:31:14;100118.75;;;3.47;89.30
78313;BME280;67568;47.438;21.408;2023-12-20T11:33:41;100108.22;;;3.02;91.23
78313;BME280;67568;47.438;21.408;2023-12-20T11:36:19;100118.59;;;3.32;90.41
78313;BME280;67568;47.438;21.408;2023-12-20T11:38:56;100113.53;;;3.19;91.05
78313;BME280;67568;47.438;21.408;2023-12-20T11:41:24;100123.47;;;3.25;90.88
78313;BME280;67568;47.438;21.408;2023-12-20T11:43:55;100126.25;;;3.30;90.76
78313;BME280;67568;47.438;21.408;2023-12-20T11:46:22;100104.84;;;3.22;90.83
78313;BME280;67568;47.438;21.408;2023-12-20T11:48:50;100093.13;;;2.99;92.21
78313;BME280;67568;47.438;21.408;2023-12-20T11:51:17;100089.25;;;2.95;92.64
78313;BME280;67568;47.438;21.408;2023-12-20T11:53:44;100098.72;;;3.14;92.63
78313;BME280;67568;47.438;21.408;2023-12-20T11:56:11;100098.91;;;3.03;93.68
78313;BME280;67568;47.438;21.408;2023-12-20T11:58:38;100112.31;;;3.04;92.11
78313;BME280;67568;47.438;21.408;2023-12-20T12:01:05;100137.59;;;2.62;96.12
78313;BME280;67568;47.438;21.408;2023-12-20T12:03:32;100144.38;;;2.60;96.91
78313;BME280;67568;47.438;21.408;2023-12-20T12:05:59;100145.34;;;2.70;96.33
78313;BME280;67568;47.438;21.408;2023-12-20T12:08:26;100152.97;;;2.68;97.47
78313;BME280;67568;47.438;21.408;2023-12-20T12:10:54;100137.59;;;2.62;97.13
78313;BME280;67568;47.438;21.408;2023-12-20T12:13:21;100152.19;;;2.73;97.32
78313;BME280;67568;47.438;21.408;2023-12-20T12:15:48;100162.88;;;2.31;98.65
78313;BME280;67568;47.438;21.408;2023-12-20T12:18:16;100148.94;;;2.32;98.44
78313;BME280;67568;47.438;21.408;2023-12-20T12:20:43;100147.19;;;2.04;99.35
78313;BME280;67568;47.438;21.408;2023-12-20T12:23:10;100132.72;;;2.25;99.61
78313;BME280;67568;47.438;21.408;2023-12-20T12:25:39;100099.44;;;2.29;99.81
78313;BME280;67568;47.438;21.408;2023-12-20T12:28:09;100108.25;;;2.36;99.14
78313;BME280;67568;47.438;21.408;2023-12-20T12:30:36;100085.38;;;2.20;99.74
78313;BME280;67568;47.438;21.408;2023-12-20T12:33:11;100075.06;;;2.05;100.00
78313;BME280;67568;47.438;21.408;2023-12-20T12:35:40;100067.31;;;2.19;99.51
78313;BME280;67568;47.438;21.408;2023-12-20T12:38:09;100053.47;;;2.25;99.33
78313;BME280;67568;47.438;21.408;2023-12-20T12:40:35;100059.09;;;2.19;99.36
78313;BME280;67568;47.438;21.408;2023-12-20T12:43:02;100045.91;;;2.11;99.60